• Join FlightAware (Why Join?)
  • Login
  • US Flag 
12:46AM EDT


 

Airport Tracker/Info


-or-


 

Live Flight TrackerFlight Track Log ✈ UAL33 ✈ 03-May-2014 ✈ RJAA / NRT - KLAX

Flight Track Log - Related Links

Times and Time Zones

All times are in EDT time to prevent confusion due to time zone crossing. See the UAL33 flight status page for this flight to view local times or setup timezone preferences in your user account.

Time Position Orientation Groundspeed Altitude Reporting Facility
EDT Latitude Longitude Course Direction KTS MPH feet Rate Location/Type
05:01AM 35.6637 140.4476 149° Southeast 228 262 4,100  Level FlightAware ADS-B (RJTK)
05:02AM 35.6256 140.4754 150° Southeast 261 300 5,200 1,680 Climbing FlightAware ADS-B (RJTK)
05:02AM 35.6013 140.4922 150° Southeast 283 326 5,800 2,280 Climbing FlightAware ADS-B (RJTK)
05:02AM 35.5793 140.5084 149° Southeast 285 328 6,800 2,820 Climbing FlightAware ADS-B (RJTK)
05:03AM 35.5417 140.5354 149° Southeast 284 327 8,300 2,580 Climbing FlightAware ADS-B (RJTK)
05:03AM 35.4937 140.5703 145° Southeast 297 342 10,000 2,220 Climbing FlightAware ADS-B (RJTK)
05:04AM 35.4702 140.6075 108° East 324 373 10,800 1,440 Climbing FlightAware ADS-B (RJTK)
05:04AM 35.4672 140.6348 91° East 348 400 11,000 1,740 Climbing FlightAware ADS-B (RJTK)
05:05AM 35.4796 140.8009 87° East 400 460 13,500 1,860 Climbing FlightAware ADS-B (RJTK)
05:06AM 35.4842 140.9092 87° East 420 483 14,900 1,080 Climbing FlightAware ADS-B (RJTK)
05:07AM 35.4897 141.0500 88° East 432 497 15,400 1,560 Climbing FlightAware ADS-B (RJTK)
05:08AM 35.4823 141.2117 96° East 443 510 18,100 2,340 Climbing FlightAware ADS-B (RJTK)
05:09AM 35.4737 141.3124 95° East 456 525 19,500 1,980 Climbing FlightAware ADS-B (RJTK)
05:10AM 35.4652 141.4154 95° East 466 536 20,800 2,040 Climbing FlightAware ADS-B (RJTK)
05:10AM 35.4566 141.5199 96° East 474 545 22,200 1,740 Climbing FlightAware ADS-B (RJTK)
05:11AM 35.4410 141.7010 96° East 498 573 24,000 1,620 Climbing FlightAware ADS-B (RJTK)
05:12AM 35.4329 141.7935 96° East 504 580 24,900 1,620 Climbing FlightAware ADS-B (RJTK)
05:13AM 35.4224 141.9122 95° East 514 592 26,000 1,500 Climbing FlightAware ADS-B (RJTK)
05:13AM 35.4120 142.0308 95° East 523 602 27,000 1,500 Climbing FlightAware ADS-B (RJTK)
05:14AM 35.4032 142.1309 95° East 529 609 27,900 1,440 Climbing FlightAware ADS-B (RJTK)
05:15AM 35.3912 142.2637 95° East 537 618 28,900 1,380 Climbing FlightAware ADS-B (RJTK)
05:15AM 35.3821 142.3635 96° East 543 625 29,700 1,320 Climbing FlightAware ADS-B (RJTK)
05:16AM 35.3680 142.5142 97° East 560 644 30,700 1,140 Climbing FlightAware ADS-B (RJTK)
05:17AM 35.3452 142.7559 97° East 564 649 32,200 1,080 Climbing FlightAware ADS-B (RJTK)
05:18AM 35.3319 142.8941 97° East 571 657 32,900 1,260 Climbing FlightAware ADS-B (RJTK)
05:19AM 35.3078 143.1425 97° East 565 650 34,800 1,320 Climbing FlightAware ADS-B (RJTK)
05:20AM 35.2868 143.3548 97° East 558 642 36,200 1,200 Climbing FlightAware ADS-B (RJTK)
05:21AM 35.2758 143.4641 97° East 556 640 37,000  Climbing FlightAware ADS-B (RJTK)
05:23AM 35.3911 143.6863 57° Northeast  Level Estimated
05:24AM 35.4669 143.8332 58° Northeast  Level Estimated
05:25AM 35.5423 143.9798 58° Northeast  Level Estimated
05:26AM 35.6174 144.1267 58° Northeast  Level Estimated
05:27AM 35.6924 144.2739 58° Northeast  Level Estimated
05:28AM 35.7673 144.4214 58° Northeast  Level Estimated
05:29AM 35.8419 144.5691 58° Northeast  Level Estimated
05:30AM 35.9164 144.7171 58° Northeast  Level Estimated
05:31AM 35.9906 144.8654 58° Northeast  Level Estimated
05:32AM 36.0647 145.0140 58° Northeast  Level Estimated
05:33AM 36.1386 145.1629 58° Northeast  Level Estimated
05:34AM 36.2123 145.3120 58° Northeast  Level Estimated
05:35AM 36.2859 145.4614 59° Northeast  Level Estimated
05:36AM 36.3592 145.6111 59° Northeast  Level Estimated
05:37AM 36.4323 145.7608 59° Northeast  Level Estimated
05:38AM 36.5051 145.9108 59° Northeast  Level Estimated
05:39AM 36.5778 146.0611 59° Northeast  Level Estimated
05:40AM 36.6502 146.2117 59° Northeast  Level Estimated
05:41AM 36.7225 146.3625 59° Northeast  Level Estimated
05:42AM 36.7946 146.5137 59° Northeast  Level Estimated
05:43AM 36.8665 146.6651 59° Northeast  Level Estimated
05:44AM 36.9382 146.8168 59° Northeast  Level Estimated
05:45AM 37.0097 146.9688 59° Northeast  Level Estimated
05:46AM 37.0811 147.1210 60° Northeast  Level Estimated
05:47AM 37.1522 147.2736 60° Northeast  Level Estimated
05:48AM 37.2231 147.4265 60° Northeast  Level Estimated
05:49AM 37.2938 147.5796 60° Northeast  Level Estimated
05:50AM 37.3644 147.7330 60° Northeast  Level Estimated
05:51AM 37.4347 147.8867 60° Northeast  Level Estimated
05:52AM 37.5048 148.0407 60° Northeast  Level Estimated
05:53AM 37.5748 148.1950 60° Northeast  Level Estimated
05:54AM 37.6445 148.3496 60° Northeast  Level Estimated
05:55AM 37.7141 148.5045 60° Northeast  Level Estimated
05:56AM 37.7834 148.6596 60° Northeast  Level Estimated
05:57AM 37.8525 148.8150 61° Northeast  Level Estimated
05:58AM 37.9214 148.9708 61° Northeast  Level Estimated
05:59AM 37.9901 149.1268 61° Northeast  Level Estimated
06:00AM 38.0587 149.2832 61° Northeast  Level Estimated
06:01AM 38.1269 149.4398 61° Northeast  Level Estimated
06:02AM 38.1950 149.5967 61° Northeast  Level Estimated
06:03AM 38.2629 149.7539 61° Northeast  Level Estimated
06:04AM 38.3306 149.9114 61° Northeast  Level Estimated
06:05AM 38.3981 150.0692 61° Northeast  Level Estimated
06:06AM 38.4653 150.2272 61° Northeast  Level Estimated
06:07AM 38.5324 150.3856 62° Northeast  Level Estimated
06:08AM 38.5992 150.5443 62° Northeast  Level Estimated
06:09AM 38.6658 150.7033 62° Northeast  Level Estimated
06:10AM 38.7322 150.8625 62° Northeast  Level Estimated
06:11AM 38.7984 151.0221 62° Northeast  Level Estimated
06:12AM 38.8643 151.1819 62° Northeast  Level Estimated
06:13AM 38.9301 151.3421 62° Northeast  Level Estimated
06:14AM 38.9956 151.5025 62° Northeast  Level Estimated
06:15AM 39.0609 151.6633 62° Northeast  Level Estimated
06:16AM 39.1260 151.8243 62° Northeast  Level Estimated
06:17AM 39.1908 151.9857 63° Northeast  Level Estimated
06:18AM 39.2555 152.1473 63° Northeast  Level Estimated
06:19AM 39.3199 152.3093 63° Northeast  Level Estimated
06:20AM 39.3841 152.4715 63° Northeast  Level Estimated
06:21AM 39.4480 152.6340 63° Northeast  Level Estimated
06:22AM 39.5118 152.7969 63° Northeast  Level Estimated
06:23AM 39.5753 152.9600 63° Northeast  Level Estimated
06:24AM 39.6385 153.1234 63° Northeast  Level Estimated
06:25AM 39.7016 153.2871 63° Northeast  Level Estimated
06:26AM 39.7644 153.4512 63° Northeast  Level Estimated
06:27AM 39.8270 153.6155 64° Northeast  Level Estimated
06:28AM 39.8894 153.7801 64° Northeast  Level Estimated
06:29AM 39.9515 153.9450 64° Northeast  Level Estimated
06:30AM 40.0134 154.1103 64° Northeast  Level Estimated
06:31AM 40.0750 154.2758 64° Northeast  Level Estimated
06:32AM 40.1365 154.4416 64° Northeast  Level Estimated
06:33AM 40.1976 154.6077 64° Northeast  Level Estimated
06:34AM 40.2586 154.7742 64° Northeast  Level Estimated
06:35AM 40.3193 154.9409 64° Northeast  Level Estimated
06:36AM 40.3797 155.1079 65° Northeast  Level Estimated
06:37AM 40.4400 155.2752 65° Northeast  Level Estimated
06:38AM 40.5000 155.4428 65° Northeast  Level Estimated
06:39AM 40.5597 155.6107 65° Northeast  Level Estimated
06:40AM 40.6192 155.7790 65° Northeast  Level Estimated
06:41AM 40.6784 155.9475 65° Northeast  Level Estimated
06:42AM 40.7374 156.1163 65° Northeast  Level Estimated
06:43AM 40.7962 156.2854 65° Northeast  Level Estimated
06:44AM 40.8547 156.4548 65° Northeast  Level Estimated
06:45AM 40.9130 156.6245 66° East  Level Estimated
06:46AM 40.9710 156.7945 66° East  Level Estimated
06:47AM 41.0288 156.9648 66° East  Level Estimated
06:48AM 41.0863 157.1355 66° East  Level Estimated
06:49AM 41.1435 157.3064 66° East  Level Estimated
06:50AM 41.2005 157.4776 66° East  Level Estimated
06:51AM 41.2573 157.6491 66° East  Level Estimated
06:52AM 41.3138 157.8209 66° East  Level Estimated
06:53AM 41.3700 157.9930 66° East  Level Estimated
06:54AM 41.4260 158.1654 67° East  Level Estimated
06:55AM 41.4818 158.3380 67° East  Level Estimated
06:56AM 41.5372 158.5110 67° East  Level Estimated
06:57AM 41.5924 158.6843 67° East  Level Estimated
06:58AM 41.6474 158.8579 67° East  Level Estimated
06:59AM 41.7021 159.0318 67° East  Level Estimated
07:00AM 41.7565 159.2059 67° East  Level Estimated
07:01AM 41.8107 159.3804 67° East  Level Estimated
07:02AM 41.8646 159.5552 67° East  Level Estimated
07:03AM 41.9182 159.7302 68° East  Level Estimated
07:04AM 41.9715 159.9056 68° East  Level Estimated
07:05AM 42.0247 160.0812 68° East  Level Estimated
07:06AM 42.0775 160.2572 68° East  Level Estimated
07:07AM 42.1300 160.4334 68° East  Level Estimated
07:08AM 42.1823 160.6099 68° East  Level Estimated
07:09AM 42.2344 160.7867 68° East  Level Estimated
07:10AM 42.2861 160.9638 68° East  Level Estimated
07:11AM 42.3376 161.1412 69° East  Level Estimated
07:12AM 42.3888 161.3189 69° East  Level Estimated
07:13AM 42.4397 161.4969 69° East  Level Estimated
07:14AM 42.4904 161.6751 69° East  Level Estimated
07:15AM 42.5407 161.8537 69° East  Level Estimated
07:16AM 42.5908 162.0325 69° East  Level Estimated
07:17AM 42.6407 162.2116 69° East  Level Estimated
07:18AM 42.6902 162.3910 69° East  Level Estimated
07:19AM 42.7394 162.5707 69° East  Level Estimated
07:20AM 42.7884 162.7507 70° East  Level Estimated
07:21AM 42.8371 162.9310 70° East  Level Estimated
07:22AM 42.8855 163.1115 70° East  Level Estimated
07:23AM 42.9337 163.2923 70° East  Level Estimated
07:24AM 42.9815 163.4735 70° East  Level Estimated
07:25AM 43.0290 163.6548 70° East  Level Estimated
07:26AM 43.0763 163.8365 70° East  Level Estimated
07:26AM 35.0833 167.2500 91° East 551 634 38,200  Level Oakland Oceanic (ODAPS)
07:40AM 35.0000 169.8500 90° East 555 639 38,200  Level Oakland Oceanic (ODAPS)
07:42AM 35.0000 170.2000 87° East 571 657 38,200  Level Oakland Oceanic (ODAPS)
07:54AM 35.0833 172.4667 89° East 564 649 38,200  Level Oakland Oceanic (ODAPS)
08:07AM 35.1000 175.0667 90° East 568 654 38,200  Level Oakland Oceanic (ODAPS)
08:21AM 35.0667 177.7333 91° East 576 663 38,200  Level Oakland Oceanic (ODAPS)
08:33AM 35.0000 180.0000 87° East 587 676 38,200  Level Oakland Oceanic (ODAPS)
08:35AM 35.0167 -179.5500 87° East 590 679 38,200  Level Oakland Oceanic (ODAPS)
08:49AM 35.0833 -176.7667 89° East 599 689 38,200  Level Oakland Oceanic (ODAPS)
09:03AM 35.1000 -173.9667 91° East 593 682 39,000  Climbing Oakland Oceanic (ODAPS)
09:17AM 35.0333 -171.1333 92° East 605 696 39,000  Level Oakland Oceanic (ODAPS)
09:22AM 35.0000 -170.0000 80° East 579 666 39,000  Level Oakland Oceanic (ODAPS)
09:31AM 35.2167 -168.3833 81° East 568 654 39,000  Level Oakland Oceanic (ODAPS)
09:45AM 35.5333 -165.7333 83° East 565 650 39,000  Level Oakland Oceanic (ODAPS)
09:58AM 35.7833 -163.0500 84° East 562 647 39,000  Level Oakland Oceanic (ODAPS)
10:12AM 35.9833 -160.4000 87° East 550 633 39,000  Level Oakland Oceanic (ODAPS)
10:14AM 36.0000 -160.0000 80° East 555 639 39,000  Level Oakland Oceanic (ODAPS)
10:18AM 36.1000 -159.3000 80° East 550 633 39,000  Level Oakland Oceanic (ODAPS)
10:23AM 36.2167 -158.4000 81° East 551 634 39,000  Level Oakland Oceanic (ODAPS)
10:26AM 36.2833 -157.8167 81° East 550 633 39,000  Level Oakland Oceanic (ODAPS)
10:40AM 36.5833 -155.2667 83° East 543 625 39,000  Level Oakland Oceanic (ODAPS)
10:54AM 36.8167 -152.6667 84° East 552 635 39,000  Level Oakland Oceanic (ODAPS)
11:08AM 37.0000 -150.0167 90° East 498 573 39,000  Level Oakland Oceanic (ODAPS)
11:08AM 37.0000 -150.0000 87° East 563 648 39,000  Level Oakland Oceanic (ODAPS)
11:22AM 37.0833 -147.3333 89° East 568 654 39,000  Level Oakland Oceanic (ODAPS)
11:35AM 37.1000 -144.6000 90° East 565 650 39,000  Level Oakland Oceanic (ODAPS)
11:49AM 37.0667 -141.9000 92° East 564 649 39,000  Level Oakland Oceanic (ODAPS)
11:59AM 37.0000 -140.0000 87° East 556 640 39,000  Level Oakland Oceanic (ODAPS)
12:03PM 37.0333 -139.2000 87° East 554 638 39,000  Level Oakland Oceanic (ODAPS)
12:17PM 37.1000 -136.4833 89° East 559 643 39,000  Level Oakland Oceanic (ODAPS)
12:31PM 37.1000 -133.7667 91° East 554 638 39,000  Level Oakland Oceanic (ODAPS)
12:45PM 37.0500 -131.1333 93° East 541 623 39,000  Level Oakland Oceanic (ODAPS)
12:51PM 37.0000 -130.0000 77° East 535 616 39,000  Level Oakland Oceanic (ODAPS)
12:59PM 37.2500 -128.5833 78° East 539 620 39,000 -60 Level Oakland Oceanic (ODAPS)
01:05PM 37.4119 -127.4972 93° East 542 624 38,900  Descending Oakland Center
01:06PM 37.4463 -127.3528 79° East 539 620 39,000 60 Climbing FlightAware Transoceanic
01:06PM 37.4422 -127.3122 78° East 542 624 39,000  Level Oakland Center
01:07PM 37.4733 -127.1764 79° East 539 620 39,000  Level FlightAware Transoceanic
01:07PM 37.4753 -127.0889 79° East 542 624 39,000  Level Oakland Center
01:08PM 37.5000 -127.0000 93° East 539 620 39,000  Level FlightAware Transoceanic
01:08PM 37.4906 -126.9014 84° East 540 621 39,000  Level Oakland Center
01:09PM 37.4918 -126.8116 93° East 539 620 39,000  Level FlightAware Transoceanic
01:09PM 37.5081 -126.7139 83° East 540 621 39,000  Level Oakland Center
01:10PM 37.4832 -126.6232 93° East 539 620 39,000  Level FlightAware Transoceanic
01:10PM 37.5283 -126.5272 82° East 540 621 39,000  Level Oakland Center
01:11PM 37.5469 -126.3419 83° East 540 621 39,000  Level Oakland Center
01:12PM 37.5611 -126.1542 85° East 540 621 39,000 -60 Level Oakland Center
01:13PM 37.5442 -125.9686 97° East 532 612 38,900  Descending Oakland Center
01:14PM 37.5317 -125.7853 95° East 532 612 39,000  Climbing Oakland Center
01:15PM 37.5133 -125.5617 96° East 532 612 39,000  Level Oakland Center
01:16PM 37.4969 -125.3744 96° East 533 613 39,000  Level Oakland Center
01:17PM 37.4808 -125.1894 96° East 533 613 39,000  Level Oakland Center
01:18PM 37.4656 -125.0053 96° East 533 613 39,000  Level Oakland Center
01:19PM 37.4483 -124.8203 97° East 533 613 39,000 -60 Level Oakland Center
01:20PM 37.4333 -124.6372 96° East 532 612 38,900  Descending Oakland Center
01:21PM 37.4156 -124.4539 97° East 532 612 39,000  Climbing Oakland Center
01:22PM 37.3989 -124.2711 96° East 530 610 38,900 -60 Descending Oakland Center
01:23PM 37.3772 -124.0517 97° East 529 609 38,900  Level Oakland Center
01:24PM 37.3614 -123.8706 96° East 529 609 38,900  Level Oakland Center
01:25PM 37.3397 -123.6875 98° East 528 608 39,000  Climbing Oakland Center
01:26PM 37.3242 -123.5067 96° East 528 608 38,900  Descending Oakland Center
01:31PM 37.2089 -122.7724 124° Southeast 509 586 39,000  Climbing FlightAware ADS-B (KPAO)
01:32PM 37.0568 -122.4900 124° Southeast 509 586 39,000  Level FlightAware ADS-B
01:33PM 37.0156 -122.4140 124° Southeast 510 587 39,000  Level FlightAware ADS-B
01:34PM 36.8700 -122.1464 124° Southeast 513 590 39,000  Level FlightAware ADS-B (KPAO)
01:38PM 36.5907 -121.6390 124° Southeast 515 593 39,000  Level FlightAware ADS-B
01:38PM 36.5433 -121.5540 125° Southeast 516 594 39,000  Level FlightAware ADS-B
01:39PM 36.4762 -121.4330 125° Southeast 515 593 39,000  Level FlightAware ADS-B
01:40PM 36.4151 -121.3240 125° Southeast 514 592 39,000  Level FlightAware ADS-B
01:41PM 36.3289 -121.1717 125° Southeast 515 593 39,000 -60 Level Los Angeles Center
01:42PM 36.2469 -121.0281 125° Southeast 512 589 38,900 -60 Descending Los Angeles Center
01:43PM 36.1650 -120.8825 125° Southeast 512 589 38,900 -540 Level Los Angeles Center
01:44PM 36.0919 -120.7008 116° Southeast 497 572 37,900 -960 Descending Los Angeles Center
01:45PM 36.0878 -120.5294 92° East 496 571 37,000 -540 Descending Los Angeles Center
01:46PM 36.0578 -120.3706 103° East 475 547 36,900  Descending Los Angeles Center
01:47PM 35.9883 -120.2303 121° Southeast 475 547 37,000  Climbing Los Angeles Center
01:49PM 35.8819 -120.1372 145° Southeast 473 544 37,000 -60 Level Los Angeles Center
01:50PM 35.7725 -120.0489 147° Southeast 469 540 36,900 -960 Descending Los Angeles Center
01:55PM 35.1550 -119.5559 144° Southeast 477 549 30,900 -1,200 Descending FlightAware ADS-B
01:56PM 35.0678 -119.4803 145° Southeast 464 534 29,300 -2,040 Descending FlightAware ADS-B
01:57PM 34.9807 -119.4060 145° Southeast 457 526 27,900 -1,980 Descending FlightAware ADS-B
01:58PM 34.8312 -119.2798 145° Southeast 433 498 25,000 -1,980 Descending FlightAware ADS-B
01:59PM 34.7770 -119.2340 145° Southeast 424 488 23,800 -2,100 Descending FlightAware ADS-B
02:01PM 34.5547 -119.0471 145° Southeast 400 460 19,100 -1,980 Descending FlightAware ADS-B
02:02PM 34.4484 -118.9579 145° Southeast 385 443 17,000 -1,800 Descending FlightAware ADS-B
02:03PM 34.4079 -118.9241 145° Southeast 379 436 16,000 -1,740 Descending FlightAware ADS-B
02:04PM 34.3361 -118.8744 158° South 370 426 14,800 -1,680 Descending FlightAware ADS-B
02:04PM 34.2849 -118.8550 163° South 364 419 13,800 -1,740 Descending FlightAware ADS-B
02:04PM 34.2676 -118.8486 162° South 361 415 13,500 -1,920 Descending FlightAware ADS-B (OPMT / MUX)
02:05PM 34.2047 -118.8255 163° South 355 409 12,200 -900 Descending FlightAware ADS-B
02:06PM 34.0797 -118.7795 163° South 297 342 11,700 -660 Descending FlightAware ADS-B (OPMT / MUX)
02:07PM 34.0391 -118.7390 117° Southeast 305 351 10,900 -1,380 Descending FlightAware ADS-B (OPMT / MUX)
02:07PM 34.0356 -118.7259 101° East 309 356 10,600 -1,140 Descending FlightAware ADS-B (OPMT / MUX)
02:08PM 34.0241 -118.6037 96° East 307 353 9,400 -960 Descending FlightAware ADS-B
02:09PM 34.0143 -118.4993 97° East 283 326 8,500 -840 Descending FlightAware ADS-B
02:10PM 34.0113 -118.4595 90° East 262 302 8,200 -780 Descending FlightAware ADS-B
02:10PM 34.0115 -118.4481 87° East 258 297 8,100 -1,320 Descending FlightAware ADS-B (OPMT / MUX)
02:10PM 34.0137 -118.4236 82° East 249 287 7,700 -1,800 Descending FlightAware ADS-B (OPMT / MUX)
02:11PM 34.0156 -118.4049 82° East 250 288 7,200 -2,040 Descending FlightAware ADS-B (OPMT / MUX)
02:11PM 34.0178 -118.3826 83° East 248 285 6,700 -1,800 Descending FlightAware ADS-B (OPMT / MUX)
02:11PM 34.0191 -118.3705 83° East 247 284 6,400 -1,620 Descending FlightAware ADS-B
02:11PM 34.0199 -118.3624 83° East 246 283 6,300 -900 Descending FlightAware ADS-B (OPMT / MUX)
02:11PM 34.0229 -118.3327 83° East 224 258 6,000 -960 Descending FlightAware ADS-B
02:12PM 34.0255 -118.3076 82° East 210 242 5,600 -1,440 Descending FlightAware ADS-B (OPMT / MUX)
02:12PM 34.0287 -118.2767 83° East 202 232 4,700 -1,440 Descending FlightAware ADS-B
02:13PM 34.0321 -118.2453 82° East 202 232 4,300 -1,080 Descending FlightAware ADS-B
02:13PM 34.0350 -118.2208 82° East 199 229 4,000 -900 Descending FlightAware ADS-B
02:14PM 34.0337 -118.1913 81° East 199 229 3,600 -960 Descending FlightAware ADS-B (OPMT / MUX)
02:14PM 34.0213 -118.1797 81° East 199 229 3,300 -840 Descending FlightAware ADS-B (OPMT / MUX)
02:14PM 34.0007 -118.1852 220° Southwest 188 216 3,000 -840 Descending FlightAware ADS-B (OPMT / MUX)
02:15PM 33.9747 -118.2260 220° Southwest 188 216 2,300 -960 Descending FlightAware ADS-B (OPMT / MUX)
02:15PM 33.9731 -118.2290 241° Southwest 178 205 2,200 -120 Descending FlightAware ADS-B (OPMT / MUX)
02:16PM 33.9667 -118.2667 241° Southwest 158 182 2,200 -300 Level Southern California TRACON
02:16PM 33.9625 -118.2978 261° West 172 198 1,800 -780 Descending Los Angeles Center
02:18PM 33.9583 -118.3464 264° West 157 181 1,000 -780 Descending Los Angeles Center
02:19PM 33.9539 -118.3942 264° West 150 173 300 -480 Descending Los Angeles Center
02:20PM 34.0806 -118.5014 325° Northwest 261 300 100 -240 Descending Los Angeles Center